createdAt,value
2023-04-26T00:00:35.580Z,37.15
2023-04-26T00:03:08.082Z,36.88
2023-04-26T00:05:39.741Z,36.77
2023-04-26T00:08:13.139Z,36.79
2023-04-26T00:10:44.804Z,36.72
2023-04-26T00:13:16.575Z,36.64
2023-04-26T00:15:48.163Z,36.60
2023-04-26T00:18:19.710Z,36.45
2023-04-26T00:20:51.402Z,36.35
2023-04-26T00:23:23.052Z,36.53
2023-04-26T00:25:54.536Z,36.65
2023-04-26T00:28:26.128Z,36.82
2023-04-26T00:30:58.183Z,36.73
2023-04-26T00:33:30.669Z,36.56
2023-04-26T00:36:03.696Z,36.58
2023-04-26T00:38:35.248Z,37.03
2023-04-26T00:41:06.855Z,37.23
2023-04-26T00:43:38.558Z,37.48
2023-04-26T00:46:10.262Z,37.69
2023-04-26T00:48:42.172Z,37.48
2023-04-26T00:51:14.032Z,37.53
2023-04-26T00:53:45.554Z,37.63
2023-04-26T00:56:18.343Z,37.61
2023-04-26T00:58:50.185Z,37.81
2023-04-26T01:01:22.426Z,37.85
2023-04-26T01:03:54.168Z,37.74
2023-04-26T01:06:25.941Z,37.58
2023-04-26T01:08:58.629Z,37.48
2023-04-26T01:11:30.750Z,37.55
2023-04-26T01:14:04.044Z,38.24
2023-04-26T01:16:36.563Z,38.95
2023-04-26T01:19:12.610Z,38.63
2023-04-26T01:21:44.577Z,38.46
2023-04-26T01:24:16.104Z,38.48
2023-04-26T01:26:47.669Z,38.46
2023-04-26T01:29:19.762Z,38.51
2023-04-26T01:31:51.290Z,38.36
2023-04-26T01:34:23.640Z,38.51
2023-04-26T01:36:55.285Z,38.76
2023-04-26T01:39:27.024Z,39.56
2023-04-26T01:41:59.530Z,39.35
2023-04-26T01:44:31.135Z,39.07
2023-04-26T01:47:04.817Z,39.50
2023-04-26T01:49:36.648Z,39.72
2023-04-26T01:52:08.191Z,39.42
2023-04-26T01:54:39.780Z,39.38
2023-04-26T01:57:11.484Z,39.54
2023-04-26T01:59:42.992Z,39.45
2023-04-26T02:02:14.509Z,39.70
2023-04-26T02:04:46.159Z,40.17
2023-04-26T02:07:17.737Z,39.99
2023-04-26T02:09:50.984Z,39.98
2023-04-26T02:12:22.491Z,39.91
2023-04-26T02:14:54.017Z,39.77
2023-04-26T02:17:27.908Z,39.87
2023-04-26T02:19:59.453Z,39.93
2023-04-26T02:22:32.237Z,40.19
2023-04-26T02:25:04.300Z,40.57
2023-04-26T02:27:37.297Z,40.96
2023-04-26T02:30:10.113Z,41.66
2023-04-26T02:32:41.722Z,42.02
2023-04-26T02:35:13.304Z,42.52
2023-04-26T02:37:48.374Z,42.94
2023-04-26T02:40:20.700Z,42.66
2023-04-26T02:42:52.388Z,42.54
2023-04-26T02:45:24.082Z,42.91
2023-04-26T02:47:55.834Z,43.18
2023-04-26T02:50:27.470Z,44.37
2023-04-26T02:52:59.056Z,44.05
2023-04-26T02:55:31.278Z,44.05
2023-04-26T02:58:06.438Z,44.05
2023-04-26T03:00:36.279Z,44.59
2023-04-26T03:03:08.547Z,44.50
2023-04-26T03:05:40.328Z,44.28
2023-04-26T03:08:11.909Z,44.28
2023-04-26T03:10:43.445Z,44.37
2023-04-26T03:13:15.402Z,44.47
2023-04-26T03:15:47.974Z,44.49
2023-04-26T03:18:19.660Z,44.68
2023-04-26T03:20:51.704Z,44.96
2023-04-26T03:23:25.691Z,45.63
2023-04-26T03:25:57.532Z,45.84
2023-04-26T03:28:29.161Z,46.01
2023-04-26T03:31:01.044Z,45.71
2023-04-26T03:33:33.875Z,45.96
2023-04-26T03:36:06.566Z,45.96
2023-04-26T03:38:38.148Z,46.09
2023-04-26T03:41:10.088Z,46.32
2023-04-26T03:43:41.586Z,46.93
2023-04-26T03:46:13.489Z,46.92
2023-04-26T03:48:45.110Z,47.40
2023-04-26T03:51:16.779Z,47.43
2023-04-26T03:53:48.933Z,47.53
2023-04-26T03:56:20.542Z,47.28
2023-04-26T03:58:52.796Z,47.19
2023-04-26T04:01:25.942Z,47.12
2023-04-26T04:03:58.563Z,47.05
2023-04-26T04:06:31.192Z,47.28
2023-04-26T04:09:05.629Z,47.11
2023-04-26T04:11:37.356Z,47.09
2023-04-26T04:14:08.878Z,47.24
2023-04-26T04:16:40.471Z,47.22
2023-04-26T04:19:12.319Z,47.11
2023-04-26T04:21:46.005Z,47.11
2023-04-26T04:24:21.024Z,47.03
2023-04-26T04:26:53.097Z,47.09
2023-04-26T04:29:24.866Z,47.07
2023-04-26T04:31:56.623Z,47.10
2023-04-26T04:34:28.189Z,47.02
2023-04-26T04:37:00.187Z,47.08
2023-04-26T04:39:32.577Z,47.08
2023-04-26T04:42:14.248Z,47.18
2023-04-26T04:44:43.160Z,47.36
2023-04-26T04:47:15.613Z,47.49
2023-04-26T04:49:47.458Z,47.59
2023-04-26T04:52:22.111Z,47.64
2023-04-26T04:54:53.873Z,47.78
2023-04-26T04:57:25.914Z,47.65
2023-04-26T04:59:58.390Z,48.20
2023-04-26T05:02:32.808Z,48.16
2023-04-26T05:05:05.911Z,48.14
2023-04-26T05:07:37.917Z,48.23
2023-04-26T05:10:12.326Z,48.30
2023-04-26T05:12:43.929Z,48.13
2023-04-26T05:15:16.310Z,48.23
2023-04-26T05:17:48.331Z,48.33
2023-04-26T05:20:24.665Z,48.46
2023-04-26T05:23:10.217Z,48.44
2023-04-26T05:25:42.238Z,48.66
2023-04-26T05:28:15.547Z,48.84
2023-04-26T05:30:54.702Z,48.76
2023-04-26T05:33:31.091Z,48.62
2023-04-26T05:36:06.017Z,48.58
2023-04-26T05:38:38.502Z,48.59
2023-04-26T05:41:10.401Z,48.55
2023-04-26T05:43:42.506Z,48.73
2023-04-26T05:46:14.067Z,48.80
2023-04-26T05:48:47.866Z,48.60
2023-04-26T05:51:19.634Z,48.62
2023-04-26T05:53:53.044Z,48.89
2023-04-26T05:56:28.802Z,48.96
2023-04-26T05:59:01.236Z,48.92
2023-04-26T06:01:32.823Z,49.23
2023-04-26T06:04:06.708Z,49.44
2023-04-26T06:06:43.981Z,49.54
2023-04-26T06:09:20.206Z,49.63
2023-04-26T06:11:52.762Z,49.80
2023-04-26T06:14:30.814Z,49.98
2023-04-26T06:17:11.270Z,50.30
2023-04-26T06:19:57.630Z,50.43
2023-04-26T06:22:18.000Z,50.79
2023-04-26T06:24:53.423Z,51.07
2023-04-26T06:27:46.811Z,51.20
2023-04-26T06:30:10.526Z,50.99
2023-04-26T06:32:43.729Z,51.16
2023-04-26T06:35:15.660Z,51.53
2023-04-26T06:37:50.086Z,51.47
2023-04-26T06:40:22.150Z,51.47
2023-04-26T06:42:54.834Z,51.83
2023-04-26T06:45:43.628Z,51.52
2023-04-26T06:51:29.912Z,51.74
2023-04-26T06:54:20.910Z,52.56
2023-04-26T06:57:04.174Z,52.39
2023-04-26T06:59:41.619Z,52.20
2023-04-26T07:02:17.238Z,52.14
2023-04-26T07:04:52.971Z,51.81
2023-04-26T07:07:25.978Z,51.26
2023-04-26T07:09:57.666Z,51.65
2023-04-26T07:12:29.313Z,51.69
2023-04-26T07:15:01.629Z,52.14
2023-04-26T07:17:35.360Z,52.15
2023-04-26T07:20:12.269Z,51.94
2023-04-26T07:22:45.316Z,52.09
2023-04-26T07:25:17.002Z,52.46
2023-04-26T07:27:50.908Z,52.31
2023-04-26T07:31:14.694Z,52.68
2023-04-26T07:33:42.551Z,52.42
2023-04-26T07:36:14.623Z,52.13
2023-04-26T07:38:48.776Z,51.66
2023-04-26T07:41:20.566Z,51.68
2023-04-26T07:43:52.395Z,51.75
2023-04-26T07:46:24.244Z,51.87
2023-04-26T07:48:56.005Z,51.81
2023-04-26T07:51:30.747Z,51.94
2023-04-26T07:54:20.795Z,52.29
2023-04-26T07:56:59.965Z,52.55
2023-04-26T07:59:37.291Z,52.98
2023-04-26T08:02:21.736Z,53.14
2023-04-26T08:04:50.478Z,53.27
2023-04-26T08:07:25.536Z,53.00
2023-04-26T08:10:02.000Z,52.79
2023-04-26T08:12:35.834Z,53.19
2023-04-26T08:15:14.686Z,53.71
2023-04-26T08:17:56.774Z,53.30
2023-04-26T08:20:33.698Z,53.13
2023-04-26T08:23:14.731Z,53.14
2023-04-26T08:26:03.334Z,52.93
2023-04-26T08:28:38.978Z,53.09
2023-04-26T08:31:27.521Z,53.26
2023-04-26T08:34:13.658Z,53.69
2023-04-26T08:37:11.386Z,53.98
2023-04-26T08:40:22.178Z,54.16
2023-04-26T08:46:16.939Z,53.60
2023-04-26T08:52:41.122Z,52.96
2023-04-26T08:55:20.480Z,52.54
2023-04-26T08:58:10.629Z,51.60
2023-04-26T09:04:33.763Z,52.39
2023-04-26T09:07:12.820Z,53.51
2023-04-26T09:09:47.908Z,52.94
2023-04-26T09:12:31.885Z,52.83
2023-04-26T09:15:26.481Z,52.91
2023-04-26T09:18:05.598Z,53.02
2023-04-26T09:20:41.764Z,52.92
2023-04-26T09:23:13.591Z,52.70
2023-04-26T09:25:47.881Z,52.68
2023-04-26T09:28:22.592Z,53.37
2023-04-26T09:30:54.935Z,52.76
2023-04-26T09:33:26.847Z,52.95
2023-04-26T09:36:11.408Z,53.86
2023-04-26T09:38:44.473Z,52.95
2023-04-26T09:41:15.950Z,53.84
2023-04-26T09:43:48.641Z,53.25
2023-04-26T09:46:26.326Z,52.95
2023-04-26T09:49:06.476Z,53.43
2023-04-26T09:51:39.578Z,54.40
2023-04-26T09:54:15.754Z,54.16
2023-04-26T09:57:04.215Z,54.09
2023-04-26T09:59:43.131Z,54.13
2023-04-26T10:02:19.484Z,53.62
2023-04-26T10:04:54.962Z,53.91
2023-04-26T10:07:27.470Z,53.87
2023-04-26T10:10:04.900Z,53.57
2023-04-26T10:12:36.965Z,53.35
2023-04-26T10:15:09.987Z,52.93
2023-04-26T10:17:43.756Z,53.40
2023-04-26T10:20:16.787Z,53.61
2023-04-26T10:22:49.816Z,53.63
2023-04-26T10:25:21.627Z,54.02
2023-04-26T10:27:53.909Z,53.71
2023-04-26T10:30:25.758Z,54.04
2023-04-26T10:33:22.430Z,54.09
2023-04-26T10:36:22.543Z,54.29
2023-04-26T10:39:11.243Z,53.87
2023-04-26T10:41:42.899Z,52.97
2023-04-26T10:44:32.972Z,53.28
2023-04-26T10:47:06.830Z,51.53
2023-04-26T10:49:48.691Z,51.16
2023-04-26T10:52:22.636Z,51.29
2023-04-26T10:54:55.309Z,52.03
2023-04-26T10:57:28.935Z,52.58
2023-04-26T11:00:18.243Z,53.40
2023-04-26T11:02:56.346Z,53.97
2023-04-26T11:05:46.004Z,53.33
2023-04-26T11:08:18.282Z,52.65
2023-04-26T11:10:53.834Z,54.32
2023-04-26T11:13:25.344Z,53.96
2023-04-26T11:16:04.463Z,53.82
2023-04-26T11:18:37.724Z,52.15
2023-04-26T11:21:10.053Z,49.72
2023-04-26T11:23:41.841Z,48.32
2023-04-26T11:26:16.508Z,47.20
2023-04-26T11:28:51.988Z,47.51
2023-04-26T11:31:23.033Z,48.47
2023-04-26T11:33:54.898Z,49.35
2023-04-26T11:36:27.468Z,50.29
2023-04-26T11:38:59.126Z,51.86
2023-04-26T11:41:34.015Z,51.55
2023-04-26T11:44:08.370Z,52.87
2023-04-26T11:46:40.066Z,52.95
2023-04-26T11:49:12.798Z,51.67
2023-04-26T11:51:44.972Z,50.86
2023-04-26T11:54:30.305Z,50.44
2023-04-26T11:57:03.094Z,50.08
2023-04-26T11:59:34.494Z,49.71
2023-04-26T12:02:11.376Z,49.67
2023-04-26T12:04:44.392Z,48.90
2023-04-26T12:07:17.698Z,48.89
2023-04-26T12:09:50.795Z,48.10
2023-04-26T12:12:25.636Z,46.50
2023-04-26T12:15:04.141Z,46.41
2023-04-26T12:17:35.894Z,46.48
2023-04-26T12:20:16.087Z,44.71
2023-04-26T12:22:58.851Z,42.56
2023-04-26T12:25:32.325Z,41.31
2023-04-26T12:28:05.058Z,42.17
2023-04-26T12:30:36.491Z,42.70
2023-04-26T12:33:17.232Z,43.72
2023-04-26T12:35:41.609Z,44.47
2023-04-26T12:38:13.650Z,45.00
2023-04-26T12:40:45.721Z,45.57
2023-04-26T12:43:17.619Z,46.04
2023-04-26T12:45:49.059Z,46.59
2023-04-26T12:48:20.844Z,46.22
2023-04-26T12:50:52.494Z,46.61
2023-04-26T12:53:25.069Z,47.04
2023-04-26T12:55:57.013Z,47.23
2023-04-26T12:58:29.299Z,47.74
2023-04-26T13:01:01.200Z,47.60
2023-04-26T13:03:32.804Z,48.04
2023-04-26T13:06:07.206Z,48.39
2023-04-26T13:08:38.726Z,48.80
2023-04-26T13:11:10.102Z,49.02
2023-04-26T13:13:44.860Z,48.92
2023-04-26T13:16:16.997Z,48.63
2023-04-26T13:18:48.597Z,48.32
2023-04-26T13:21:20.197Z,45.20
2023-04-26T13:23:51.781Z,41.51
2023-04-26T13:26:24.391Z,39.67
2023-04-26T13:28:56.950Z,38.51
2023-04-26T13:31:29.154Z,37.99
2023-04-26T13:34:00.940Z,37.52
2023-04-26T13:36:33.173Z,37.38
2023-04-26T13:39:07.399Z,36.66
2023-04-26T13:41:38.897Z,36.83
2023-04-26T13:44:10.690Z,37.99
2023-04-26T13:46:42.578Z,37.27
2023-04-26T13:49:14.639Z,37.22
2023-04-26T13:51:46.158Z,36.44
2023-04-26T13:54:17.841Z,34.79
2023-04-26T13:56:49.413Z,36.81
2023-04-26T13:59:20.934Z,35.36
2023-04-26T14:01:54.710Z,34.59
2023-04-26T14:04:28.351Z,36.90
2023-04-26T14:07:08.049Z,38.71
2023-04-26T14:09:39.581Z,39.70
2023-04-26T14:12:11.080Z,37.83
2023-04-26T14:14:42.643Z,37.39
2023-04-26T14:17:14.152Z,36.73
2023-04-26T14:19:45.564Z,36.46
2023-04-26T14:22:19.960Z,36.17
2023-04-26T14:24:51.662Z,36.53
2023-04-26T14:27:26.710Z,37.61
2023-04-26T14:29:58.277Z,38.50
2023-04-26T14:32:34.825Z,39.74
2023-04-26T14:35:07.434Z,40.21
2023-04-26T14:37:39.183Z,38.82
2023-04-26T14:40:11.569Z,38.13
2023-04-26T14:42:48.208Z,37.64
2023-04-26T14:45:22.267Z,38.14
2023-04-26T14:47:53.624Z,38.08
2023-04-26T14:50:25.329Z,37.68
2023-04-26T14:52:57.483Z,37.19
2023-04-26T14:55:33.489Z,37.38
2023-04-26T14:58:05.084Z,38.28
2023-04-26T15:00:38.494Z,38.19
2023-04-26T15:03:10.461Z,37.48
2023-04-26T15:05:42.197Z,38.18
2023-04-26T15:08:14.808Z,37.68
2023-04-26T15:10:47.056Z,38.00
2023-04-26T15:13:18.932Z,37.76
2023-04-26T15:15:50.798Z,37.55
2023-04-26T15:18:22.619Z,38.26
2023-04-26T15:20:54.209Z,38.40
2023-04-26T15:23:26.144Z,38.49
2023-04-26T15:25:59.299Z,38.79
2023-04-26T15:28:31.226Z,38.99
2023-04-26T15:31:10.088Z,39.59
2023-04-26T15:33:44.175Z,40.13
2023-04-26T15:36:16.661Z,39.50
2023-04-26T15:41:31.378Z,39.98
2023-04-26T15:46:43.901Z,40.70
2023-04-26T15:49:17.960Z,41.03
2023-04-26T15:51:55.682Z,41.25
2023-04-26T15:54:27.813Z,41.21
2023-04-26T15:56:59.811Z,41.39
2023-04-26T15:59:33.526Z,41.61
2023-04-26T16:02:08.077Z,41.77
2023-04-26T16:04:49.018Z,42.00
2023-04-26T16:07:20.868Z,42.06
2023-04-26T16:09:57.352Z,42.25
2023-04-26T16:12:31.663Z,42.31
2023-04-26T16:15:12.649Z,42.50
2023-04-26T16:17:46.744Z,42.51
2023-04-26T16:20:22.400Z,42.64
2023-04-26T16:22:54.310Z,42.71
2023-04-26T16:25:26.471Z,42.77
2023-04-26T16:28:02.465Z,42.86
2023-04-26T16:30:36.060Z,42.95
2023-04-26T16:33:10.328Z,42.97
2023-04-26T16:35:42.456Z,43.04
2023-04-26T16:38:14.096Z,43.03
2023-04-26T16:40:46.163Z,43.08
2023-04-26T16:43:21.699Z,43.08
2023-04-26T16:46:05.611Z,43.18
2023-04-26T16:48:36.728Z,43.30
2023-04-26T16:51:29.859Z,43.43
2023-04-26T16:54:09.122Z,43.59
2023-04-26T16:56:40.865Z,43.60
2023-04-26T16:59:16.305Z,43.70
2023-04-26T17:01:49.380Z,43.79
2023-04-26T17:04:28.731Z,44.03
2023-04-26T17:07:12.923Z,44.18
2023-04-26T17:09:47.399Z,44.51
2023-04-26T17:12:20.379Z,44.44
2023-04-26T17:14:51.752Z,44.38
2023-04-26T17:17:23.382Z,44.31
2023-04-26T17:19:55.353Z,44.21
2023-04-26T17:22:26.736Z,44.35
2023-04-26T17:24:58.663Z,44.89
2023-04-26T17:27:33.057Z,45.25
2023-04-26T17:30:05.706Z,45.27
2023-04-26T17:32:43.636Z,45.55
2023-04-26T17:35:15.938Z,45.68
2023-04-26T17:37:50.436Z,45.88
2023-04-26T17:40:22.193Z,45.90
2023-04-26T17:42:55.253Z,46.06
2023-04-26T17:45:29.957Z,45.81
2023-04-26T17:48:01.717Z,46.24
2023-04-26T17:50:33.257Z,45.94
2023-04-26T17:53:06.081Z,46.19
2023-04-26T17:55:38.029Z,46.42
2023-04-26T17:58:09.760Z,46.62
2023-04-26T18:00:41.337Z,46.67
2023-04-26T18:03:12.848Z,46.43
2023-04-26T18:05:44.645Z,46.76
2023-04-26T18:08:16.106Z,46.64
2023-04-26T18:10:50.636Z,46.79
2023-04-26T18:13:22.245Z,46.87
2023-04-26T18:15:57.331Z,46.79
2023-04-26T18:18:28.933Z,46.82
2023-04-26T18:21:04.425Z,46.53
2023-04-26T18:23:39.189Z,46.39
2023-04-26T18:26:10.689Z,46.37
2023-04-26T18:28:43.630Z,46.52
2023-04-26T18:31:15.202Z,46.53
2023-04-26T18:33:50.486Z,46.74
2023-04-26T18:36:21.941Z,46.83
2023-04-26T18:38:57.523Z,46.90
2023-04-26T18:41:28.970Z,47.20
2023-04-26T18:44:00.388Z,47.33
2023-04-26T18:46:34.842Z,48.04
2023-04-26T18:49:06.376Z,47.66
2023-04-26T18:51:41.694Z,47.80
2023-04-26T18:54:13.400Z,47.85
2023-04-26T18:56:45.172Z,47.76
2023-04-26T18:59:16.750Z,48.17
2023-04-26T19:01:49.317Z,48.06
2023-04-26T19:04:21.875Z,48.17
2023-04-26T19:06:53.528Z,47.95
2023-04-26T19:09:25.167Z,48.04
2023-04-26T19:11:56.574Z,48.33
2023-04-26T19:14:28.042Z,48.44
2023-04-26T19:17:00.002Z,48.54
2023-04-26T19:19:31.576Z,48.63
2023-04-26T19:22:03.475Z,48.80
2023-04-26T19:24:35.055Z,49.25
2023-04-26T19:27:06.586Z,48.97
2023-04-26T19:29:37.931Z,48.92
2023-04-26T19:32:10.575Z,49.09
2023-04-26T19:34:42.090Z,49.08
2023-04-26T19:37:13.535Z,49.07
2023-04-26T19:39:45.012Z,49.16
2023-04-26T19:42:16.558Z,49.29
2023-04-26T19:44:48.101Z,49.50
2023-04-26T19:47:20.335Z,49.57
2023-04-26T19:50:00.239Z,49.59
2023-04-26T19:52:45.220Z,49.40
2023-04-26T19:55:20.243Z,49.92
2023-04-26T20:01:01.207Z,49.74
2023-04-26T20:03:37.717Z,49.74
2023-04-26T20:06:17.966Z,49.85
2023-04-26T20:11:47.948Z,48.54
2023-04-26T20:14:25.868Z,48.01
2023-04-26T20:16:54.172Z,48.16
2023-04-26T20:19:26.452Z,48.55
2023-04-26T20:21:58.242Z,48.72
2023-04-26T20:24:40.290Z,49.10
2023-04-26T20:27:12.037Z,49.14
2023-04-26T20:29:45.200Z,49.24
2023-04-26T20:32:20.873Z,49.38
2023-04-26T20:34:53.344Z,49.38
2023-04-26T20:37:33.396Z,49.73
2023-04-26T20:40:11.385Z,49.80
2023-04-26T20:42:47.704Z,50.01
2023-04-26T20:45:21.093Z,50.35
2023-04-26T20:47:54.884Z,50.61
2023-04-26T20:50:27.365Z,50.89
2023-04-26T20:52:59.235Z,50.96
2023-04-26T20:55:37.341Z,51.01
2023-04-26T20:58:11.128Z,51.13
2023-04-26T21:00:43.251Z,51.30
2023-04-26T21:03:15.297Z,51.27
2023-04-26T21:05:47.235Z,51.34
2023-04-26T21:08:22.336Z,51.43
2023-04-26T21:10:53.976Z,51.24
2023-04-26T21:13:25.876Z,51.57
2023-04-26T21:15:58.196Z,51.16
2023-04-26T21:18:34.116Z,51.36
2023-04-26T21:21:09.287Z,51.35
2023-04-26T21:23:41.046Z,51.53
2023-04-26T21:26:35.232Z,51.46
2023-04-26T21:29:09.501Z,51.42
2023-04-26T21:31:41.363Z,51.12
2023-04-26T21:34:14.491Z,51.12
2023-04-26T21:36:47.345Z,51.28
2023-04-26T21:39:19.140Z,51.32
2023-04-26T21:41:50.860Z,51.58
2023-04-26T21:44:22.578Z,51.47
2023-04-26T21:46:54.304Z,52.01
2023-04-26T21:49:26.322Z,51.95
2023-04-26T21:51:58.114Z,51.66
2023-04-26T21:54:29.962Z,51.38
2023-04-26T21:57:08.090Z,51.16
2023-04-26T21:59:41.399Z,50.78
2023-04-26T22:02:13.280Z,51.01
2023-04-26T22:04:45.160Z,51.55
2023-04-26T22:07:16.996Z,51.21
2023-04-26T22:09:48.759Z,51.48
2023-04-26T22:12:20.841Z,51.53
2023-04-26T22:14:52.574Z,51.46
2023-04-26T22:17:24.533Z,51.72
2023-04-26T22:19:56.620Z,51.67
2023-04-26T22:22:28.654Z,51.66
2023-04-26T22:25:00.365Z,51.61
2023-04-26T22:27:35.691Z,51.65
2023-04-26T22:30:24.025Z,51.68
2023-04-26T22:32:43.932Z,51.49
2023-04-26T22:35:15.717Z,51.46
2023-04-26T22:37:47.471Z,51.59
2023-04-26T22:40:19.383Z,51.60
2023-04-26T22:42:51.530Z,51.74
2023-04-26T22:45:23.695Z,51.81
2023-04-26T22:47:55.423Z,51.66
2023-04-26T22:50:27.377Z,51.74
2023-04-26T22:53:04.715Z,51.85
2023-04-26T22:55:36.538Z,51.71
2023-04-26T22:58:08.164Z,51.70
2023-04-26T23:00:39.853Z,51.90
2023-04-26T23:03:11.784Z,51.58
2023-04-26T23:05:43.601Z,51.34
2023-04-26T23:08:15.337Z,50.99
2023-04-26T23:10:49.990Z,50.95
2023-04-26T23:13:21.666Z,50.73
2023-04-26T23:15:53.396Z,50.57
2023-04-26T23:18:26.862Z,50.39
2023-04-26T23:20:58.857Z,50.26
2023-04-26T23:23:30.726Z,50.42
2023-04-26T23:26:06.472Z,50.46
2023-04-26T23:28:37.908Z,50.64
2023-04-26T23:31:12.682Z,50.72
2023-04-26T23:33:44.380Z,50.46
2023-04-26T23:36:16.136Z,50.32
2023-04-26T23:38:47.871Z,50.34
2023-04-26T23:41:19.583Z,50.02
2023-04-26T23:43:51.221Z,49.70
2023-04-26T23:46:22.965Z,49.93
2023-04-26T23:48:54.653Z,50.22
2023-04-26T23:51:29.708Z,50.76
2023-04-26T23:54:04.901Z,51.20
2023-04-26T23:56:36.716Z,51.30
2023-04-26T23:59:08.582Z,51.47
